Time;durP1;ratioP1;P1;durP2;ratioP2;P2;SDS_P1;SDS_P2;PMS_P1;PMS_P2;Temp;Humidity;BMP_temperature;BMP_pressure;BME280_temperature;BME280_humidity;BME280_pressure;Samples;Min_cycle;Max_cycle;Signal;HPM_P1;HPM_P2
2022/10/24 00:00:45;;;;;;;12.10;3.03;;;15.80;99.90;;;;;;5114839;28;20027;-70
2022/10/24 00:03:12;;;;;;;10.25;3.17;;;15.80;99.90;;;;;;5115104;28;20031;-70
2022/10/24 00:05:43;;;;;;;7.78;2.50;;;15.90;99.90;;;;;;5114640;28;20027;-70
2022/10/24 00:08:09;;;;;;;7.78;2.75;;;15.90;99.90;;;;;;5114762;28;20031;-70
2022/10/24 00:10:35;;;;;;;10.30;2.60;;;15.90;99.90;;;;;;5114728;28;20047;-70
2022/10/24 00:13:02;;;;;;;8.00;2.60;;;15.90;99.90;;;;;;5114375;28;20043;-70
2022/10/24 00:15:29;;;;;;;13.48;2.92;;;15.90;99.90;;;;;;5114632;28;20035;-70
2022/10/24 00:17:54;;;;;;;8.35;2.78;;;15.90;99.90;;;;;;5096482;28;20098;-70
2022/10/24 00:20:20;;;;;;;10.23;2.88;;;15.90;99.90;;;;;;5114781;28;20028;-70
2022/10/24 00:22:46;;;;;;;9.68;2.92;;;15.90;99.90;;;;;;5114427;28;20746;-70
2022/10/24 00:25:12;;;;;;;8.65;2.67;;;15.90;99.90;;;;;;5096740;28;20380;-70
2022/10/24 00:27:38;;;;;;;8.77;3.40;;;15.90;99.90;;;;;;5096321;28;20499;-70
2022/10/24 00:30:05;;;;;;;7.30;2.85;;;15.90;99.90;;;;;;5095718;28;20080;-70
2022/10/24 00:32:31;;;;;;;9.52;2.90;;;15.90;99.90;;;;;;5114193;28;20034;-70
2022/10/24 00:34:57;;;;;;;10.07;2.80;;;15.90;99.90;;;;;;5114289;28;20406;-70
2022/10/24 00:37:23;;;;;;;8.32;2.90;;;15.90;99.90;;;;;;5114139;28;20023;-70
2022/10/24 00:39:49;;;;;;;7.43;2.67;;;15.90;99.90;;;;;;5114057;28;20051;-70
2022/10/24 00:42:15;;;;;;;10.90;3.58;;;15.90;99.90;;;;;;5095778;28;20114;-70
2022/10/24 00:44:41;;;;;;;7.63;2.95;;;15.90;99.90;;;;;;5095900;28;20494;-70
2022/10/24 00:47:14;;;;;;;8.75;2.40;;;16.00;99.90;;;;;;5113992;28;20024;-70
2022/10/24 00:49:59;;;;;;;8.85;2.95;;;16.00;99.90;;;;;;5113776;28;20024;-70
2022/10/24 00:52:33;;;;;;;8.75;3.17;;;16.00;99.90;;;;;;5114074;28;20028;-70
2022/10/24 00:55:01;;;;;;;10.50;3.10;;;16.00;99.90;;;;;;5095826;28;20066;-71
2022/10/24 00:57:50;;;;;;;12.40;3.03;;;16.00;99.90;;;;;;5095696;28;20039;-70
2022/10/24 01:00:18;;;;;;;;;;;16.00;99.90;;;;;;5096149;28;20114;-70
2022/10/24 01:02:44;;;;;;;11.50;3.03;;;16.00;99.90;;;;;;5113981;28;19987;-70
2022/10/24 01:05:11;;;;;;;10.02;3.45;;;16.00;99.90;;;;;;5113823;28;20400;-70
2022/10/24 01:07:46;;;;;;;9.50;3.03;;;16.00;99.90;;;;;;5113681;28;20024;-70
2022/10/24 01:10:15;;;;;;;12.75;3.20;;;16.00;99.90;;;;;;5113669;28;20498;-70
2022/10/24 01:12:53;;;;;;;9.15;2.75;;;16.00;99.90;;;;;;5113474;28;20040;-70
2022/10/24 01:15:34;;;;;;;7.07;2.95;;;16.00;99.90;;;;;;5095319;28;20114;-70
2022/10/24 01:18:10;;;;;;;8.93;3.13;;;16.00;99.90;;;;;;5095116;28;20050;-69
2022/10/24 01:20:44;;;;;;;5.80;2.70;;;16.00;99.90;;;;;;5112967;28;20484;-70
2022/10/24 01:23:35;;;;;;;6.93;3.15;;;16.00;99.90;;;;;;5130126;22;20067;-86
2022/10/24 01:26:07;;;;;;;8.50;2.78;;;16.00;99.90;;;;;;5086941;28;20036;-86
2022/10/24 01:28:54;;;;;;;8.30;2.65;;;16.00;99.90;;;;;;5083928;28;20038;-86
2022/10/24 01:31:28;;;;;;;12.85;3.20;;;16.00;99.90;;;;;;5092417;28;20121;-86
2022/10/24 01:34:01;;;;;;;8.15;2.80;;;16.00;99.90;;;;;;5091395;28;20359;-86
2022/10/24 01:36:55;;;;;;;9.35;2.45;;;16.00;99.90;;;;;;5092114;28;20047;-86
2022/10/24 01:39:27;;;;;;;15.15;3.00;;;16.00;99.90;;;;;;5092250;28;20024;-86
2022/10/24 01:41:56;;;;;;;7.88;2.70;;;16.00;99.90;;;;;;5074105;28;20483;-86
2022/10/24 01:44:28;;;;;;;7.13;2.58;;;16.00;99.90;;;;;;5092203;28;20059;-86
2022/10/24 01:47:12;;;;;;;10.70;2.88;;;16.00;99.90;;;;;;5090715;28;20094;-86
2022/10/24 01:49:42;;;;;;;10.68;2.70;;;16.00;99.90;;;;;;5092020;28;20031;-86
2022/10/24 01:52:13;;;;;;;10.20;2.83;;;16.00;99.90;;;;;;5090323;28;20039;-86
2022/10/24 01:54:41;;;;;;;10.88;2.60;;;16.00;99.90;;;;;;5091911;28;20439;-86
2022/10/24 01:57:06;;;;;;;6.80;2.20;;;16.00;99.90;;;;;;5091815;28;20107;-86
2022/10/24 01:59:43;;;;;;;10.60;2.97;;;16.00;99.90;;;;;;5091711;28;20020;-86
2022/10/24 02:02:12;;;;;;;9.27;2.58;;;16.00;99.90;;;;;;5090625;28;20407;-86
2022/10/24 02:04:45;;;;;;;7.72;2.42;;;16.00;99.90;;;;;;5091785;28;20026;-86
2022/10/24 02:07:12;;;;;;;10.40;2.75;;;16.00;99.90;;;;;;5090470;28;20035;-86
2022/10/24 02:09:42;;;;;;;6.57;2.65;;;16.00;99.90;;;;;;5092124;28;20024;-86
2022/10/24 02:12:10;;;;;;;11.50;2.83;;;16.00;99.90;;;;;;5091433;28;20436;-86
2022/10/24 02:14:44;;;;;;;9.98;2.58;;;16.00;99.90;;;;;;5091546;28;20029;-86
2022/10/24 02:17:10;;;;;;;12.27;2.88;;;16.00;99.90;;;;;;5090337;28;20445;-86
2022/10/24 02:19:37;;;;;;;9.13;2.50;;;16.00;99.90;;;;;;5090136;28;20024;-85
2022/10/24 02:22:13;;;;;;;9.93;2.85;;;16.00;99.90;;;;;;5090119;28;20024;-86
2022/10/24 02:25:05;;;;;;;10.93;2.78;;;16.00;99.90;;;;;;5091568;28;20024;-86
2022/10/24 02:27:51;;;;;;;12.27;2.58;;;16.00;99.90;;;;;;5085480;28;20036;-86
2022/10/24 02:30:23;;;;;;;7.95;2.67;;;16.00;99.90;;;;;;5089993;28;20121;-86
2022/10/24 02:32:54;;;;;;;7.50;2.28;;;16.00;99.90;;;;;;5091783;28;20107;-86
2022/10/24 02:35:25;;;;;;;7.60;2.35;;;16.00;99.90;;;;;;5091302;28;20888;-86
2022/10/24 02:37:57;;;;;;;7.60;2.15;;;16.00;99.90;;;;;;5090007;28;20024;-86
2022/10/24 02:40:24;;;;;;;8.63;2.47;;;16.00;99.90;;;;;;5091191;28;20039;-86
2022/10/24 02:42:53;;;;;;;6.90;2.53;;;16.00;99.90;;;;;;5073238;28;20028;-86
2022/10/24 02:45:21;;;;;;;9.85;2.22;;;16.00;99.90;;;;;;5091265;28;20024;-86
2022/10/24 02:47:49;;;;;;;8.90;2.53;;;16.00;99.90;;;;;;5072868;28;20032;-86
2022/10/24 02:50:15;;;;;;;8.52;2.47;;;16.00;99.90;;;;;;5091199;28;20058;-86
2022/10/24 02:52:42;;;;;;;7.82;2.45;;;16.00;99.90;;;;;;5091123;28;20074;-86
2022/10/24 02:55:10;;;;;;;9.52;2.85;;;16.00;99.90;;;;;;5091011;28;20047;-86
2022/10/24 02:57:36;;;;;;;7.15;2.17;;;16.00;99.90;;;;;;5091021;28;20024;-86
2022/10/24 03:00:04;;;;;;;10.35;2.50;;;16.00;99.90;;;;;;5089518;28;20032;-86
2022/10/24 03:02:30;;;;;;;6.68;2.00;;;16.00;99.90;;;;;;5090493;28;20032;-86
2022/10/24 03:04:56;;;;;;;8.05;2.72;;;16.00;99.90;;;;;;5095520;28;20614;-86
2022/10/24 03:07:21;;;;;;;6.13;2.15;;;16.10;99.90;;;;;;5095128;28;20032;-86
2022/10/24 03:09:47;;;;;;;7.38;2.00;;;16.10;99.90;;;;;;5093839;28;20040;-86
2022/10/24 03:12:15;;;;;;;6.60;2.10;;;16.00;99.90;;;;;;5093882;28;20032;-86
2022/10/24 03:14:41;;;;;;;10.18;2.55;;;16.00;99.90;;;;;;5094870;28;20388;-86
2022/10/24 03:17:06;;;;;;;9.30;2.67;;;16.00;99.90;;;;;;5094893;28;20027;-86
2022/10/24 03:19:32;;;;;;;6.63;2.00;;;16.00;99.90;;;;;;5095015;28;20024;-86
2022/10/24 03:21:58;;;;;;;6.18;2.60;;;16.00;99.90;;;;;;5094796;28;20036;-86
2022/10/24 03:24:24;;;;;;;9.55;2.50;;;16.00;99.90;;;;;;5093709;28;20035;-86
2022/10/24 03:26:51;;;;;;;9.05;2.47;;;16.00;99.90;;;;;;5094703;28;20077;-86
2022/10/24 03:29:18;;;;;;;7.72;2.50;;;16.00;99.90;;;;;;5094682;28;20036;-86
2022/10/24 03:31:45;;;;;;;6.15;2.00;;;16.00;99.90;;;;;;5093490;28;20028;-86
2022/10/24 03:34:11;;;;;;;9.38;2.30;;;16.00;99.90;;;;;;5076696;28;20032;-86
2022/10/24 03:36:37;;;;;;;8.45;2.33;;;16.00;99.90;;;;;;5094390;28;20169;-86
2022/10/24 03:39:03;;;;;;;8.15;2.00;;;16.00;99.90;;;;;;5094394;28;20551;-86
2022/10/24 03:41:29;;;;;;;11.85;2.33;;;15.90;99.90;;;;;;5094534;28;20028;-86
2022/10/24 03:43:54;;;;;;;10.25;2.55;;;15.90;99.90;;;;;;5093198;28;20024;-86
2022/10/24 03:46:20;;;;;;;7.78;2.47;;;16.00;99.90;;;;;;5094324;28;20373;-86
2022/10/24 03:48:46;;;;;;;6.63;2.53;;;16.00;99.90;;;;;;5093011;28;20032;-87
2022/10/24 03:51:12;;;;;;;9.23;2.50;;;16.00;99.90;;;;;;5094460;28;20036;-86
2022/10/24 03:53:38;;;;;;;7.75;2.67;;;16.00;99.90;;;;;;5094402;28;20110;-86
2022/10/24 03:56:04;;;;;;;10.38;2.63;;;16.00;99.90;;;;;;5093004;28;20079;-86
2022/10/24 03:58:29;;;;;;;7.63;2.25;;;15.90;99.90;;;;;;5092794;28;20459;-86
2022/10/24 04:00:57;;;;;;;10.38;2.72;;;15.90;99.90;;;;;;5094331;28;20107;-86
2022/10/24 04:03:25;;;;;;;6.20;2.47;;;15.90;99.90;;;;;;5092928;28;20373;-86
2022/10/24 04:05:51;;;;;;;6.25;2.55;;;15.90;99.90;;;;;;5092960;28;20020;-86
2022/10/24 04:08:17;;;;;;;9.48;2.03;;;15.90;99.90;;;;;;5075894;28;20388;-86
2022/10/24 04:10:43;;;;;;;8.25;2.28;;;15.90;99.90;;;;;;5093850;28;20400;-86
2022/10/24 04:13:09;;;;;;;8.27;2.58;;;15.90;99.90;;;;;;5093351;28;20051;-86
2022/10/24 04:15:35;;;;;;;8.25;2.65;;;15.90;99.90;;;;;;5093882;28;20484;-86
2022/10/24 04:18:01;;;;;;;7.57;2.53;;;15.80;99.90;;;;;;5092558;28;20051;-85
2022/10/24 04:20:27;;;;;;;10.05;2.55;;;15.80;99.90;;;;;;5093681;28;20503;-86
2022/10/24 04:22:53;;;;;;;9.02;2.17;;;15.80;99.90;;;;;;5092454;28;20039;-86
2022/10/24 04:25:19;;;;;;;8.75;2.67;;;15.90;99.90;;;;;;5093747;28;20028;-86
2022/10/24 04:27:45;;;;;;;7.88;2.53;;;15.80;99.90;;;;;;5092421;28;20028;-86
2022/10/24 04:30:12;;;;;;;6.60;2.10;;;15.80;99.90;;;;;;5093746;28;20024;-86
2022/10/24 04:32:38;;;;;;;6.90;2.10;;;15.80;99.90;;;;;;5093613;28;20111;-86
2022/10/24 04:35:05;;;;;;;8.57;2.60;;;15.80;99.90;;;;;;5093567;28;20169;-86
2022/10/24 04:37:33;;;;;;;9.02;2.50;;;15.80;99.90;;;;;;5092045;28;20377;-86
2022/10/24 04:39:59;;;;;;;7.80;2.78;;;15.80;99.90;;;;;;5091920;28;20024;-86
2022/10/24 04:42:25;;;;;;;10.07;2.63;;;15.80;99.90;;;;;;5075154;28;20041;-86
2022/10/24 04:44:51;;;;;;;7.65;2.90;;;15.80;99.90;;;;;;5093568;28;20020;-86
2022/10/24 04:47:17;;;;;;;7.43;2.38;;;15.70;99.90;;;;;;5093258;28;20519;-86
2022/10/24 04:49:43;;;;;;;9.80;2.63;;;15.80;99.90;;;;;;5093061;28;20366;-86
2022/10/24 04:52:09;;;;;;;8.75;3.03;;;15.80;99.90;;;;;;5075083;28;20127;-86
2022/10/24 04:54:35;;;;;;;8.95;3.17;;;15.70;99.90;;;;;;5093137;28;20032;-86
2022/10/24 04:57:01;;;;;;;9.45;4.38;;;15.70;99.90;;;;;;5091943;28;20097;-87
2022/10/24 04:59:27;;;;;;;12.95;4.50;;;15.80;99.90;;;;;;5074774;28;20086;-86
2022/10/24 05:01:56;;;;;;;8.25;3.13;;;15.80;99.90;;;;;;5093238;28;20034;-86
2022/10/24 05:04:21;;;;;;;8.27;2.47;;;15.80;99.90;;;;;;5091833;28;20396;-86
2022/10/24 05:06:50;;;;;;;7.35;2.53;;;15.80;99.90;;;;;;5092852;28;20024;-87
2022/10/24 05:09:16;;;;;;;9.10;2.25;;;15.80;99.90;;;;;;5092723;28;20111;-86
2022/10/24 05:11:42;;;;;;;7.35;2.05;;;15.80;99.90;;;;;;5092774;28;20054;-86
2022/10/24 05:14:08;;;;;;;6.20;2.13;;;15.70;99.90;;;;;;5092527;28;20032;-86
2022/10/24 05:16:33;;;;;;;9.13;2.53;;;15.80;99.90;;;;;;5092258;28;20115;-86
2022/10/24 05:18:59;;;;;;;7.03;2.13;;;15.80;99.90;;;;;;5091340;28;20032;-86
2022/10/24 05:21:25;;;;;;;8.45;2.25;;;15.80;99.90;;;;;;5092967;28;20024;-87
2022/10/24 05:23:51;;;;;;;9.50;2.53;;;15.80;99.90;;;;;;5091014;28;20031;-86
2022/10/24 05:26:16;;;;;;;8.05;2.38;;;15.80;99.90;;;;;;5091575;28;20508;-86
2022/10/24 05:28:42;;;;;;;9.60;2.40;;;15.80;99.90;;;;;;5092154;28;20055;-86
2022/10/24 05:31:08;;;;;;;7.63;2.70;;;15.80;99.90;;;;;;5092355;28;20035;-86
2022/10/24 05:33:34;;;;;;;8.35;3.33;;;15.80;99.90;;;;;;5092272;28;20031;-86
2022/10/24 05:36:00;;;;;;;7.60;3.30;;;15.80;99.90;;;;;;5091946;28;20544;-86
2022/10/24 05:38:25;;;;;;;8.75;2.55;;;15.70;99.90;;;;;;5091969;28;20496;-86
2022/10/24 05:40:52;;;;;;;11.98;3.30;;;15.70;99.90;;;;;;5091907;28;20411;-86
2022/10/24 05:43:18;;;;;;;7.63;2.55;;;15.70;99.90;;;;;;5092077;28;20024;-86
2022/10/24 05:45:46;;;;;;;8.27;2.60;;;15.70;99.90;;;;;;5091977;28;20035;-86
2022/10/24 05:48:12;;;;;;;8.18;2.58;;;15.70;99.90;;;;;;5092107;28;20032;-86
2022/10/24 05:50:37;;;;;;;6.57;2.45;;;15.70;99.90;;;;;;5091966;28;20039;-86
2022/10/24 05:53:03;;;;;;;6.45;2.47;;;15.70;99.90;;;;;;5091893;28;20030;-86
2022/10/24 05:55:33;;;;;;;6.88;3.10;;;15.60;99.90;;;;;;5091986;28;20520;-87
2022/10/24 05:57:59;;;;;;;7.28;2.70;;;15.70;99.90;;;;;;5090651;28;20472;-86
2022/10/24 06:00:25;;;;;;;8.32;2.55;;;15.60;99.90;;;;;;5091597;28;20038;-86
2022/10/24 06:02:51;;;;;;;8.52;2.42;;;15.60;99.90;;;;;;5091961;28;20028;-86
2022/10/24 06:05:17;;;;;;;7.63;2.30;;;15.60;99.90;;;;;;5091828;28;20100;-86
2022/10/24 06:07:43;;;;;;;8.95;2.35;;;15.60;99.90;;;;;;5091491;28;20097;-86
2022/10/24 06:10:11;;;;;;;6.55;2.42;;;15.60;99.90;;;;;;5090077;28;20488;-86
2022/10/24 06:12:37;;;;;;;6.80;2.63;;;15.60;99.90;;;;;;5090640;28;20032;-87
2022/10/24 06:15:27;;;;;;;7.15;2.40;;;15.60;99.90;;;;;;5091560;28;20024;-85
2022/10/24 06:17:56;;;;;;;8.32;2.90;;;15.60;99.90;;;;;;5091497;28;20491;-88
2022/10/24 06:20:22;;;;;;;10.55;2.90;;;15.50;99.90;;;;;;5091267;28;20032;-88
2022/10/24 06:22:49;;;;;;;7.93;2.30;;;15.50;99.90;;;;;;5125611;22;20082;-71
2022/10/24 06:25:16;;;;;;;5.90;2.17;;;15.60;99.90;;;;;;5070351;28;20052;-72
2022/10/24 06:27:42;;;;;;;7.95;2.10;;;15.50;99.90;;;;;;5053357;28;20029;-72
2022/10/24 06:30:11;;;;;;;9.23;2.72;;;15.60;99.90;;;;;;5071640;28;20429;-72
2022/10/24 06:32:37;;;;;;;;;;;15.60;99.90;;;;;;5071909;28;20104;-73
2022/10/24 06:35:04;;;;;;;6.32;2.20;;;15.60;99.90;;;;;;5071718;28;19912;-73
2022/10/24 06:37:30;;;;;;;7.78;2.20;;;15.50;99.90;;;;;;5071089;28;20104;-72
2022/10/24 06:39:55;;;;;;;5.80;2.05;;;15.60;99.90;;;;;;5071357;28;20107;-72
2022/10/24 06:42:21;;;;;;;4.80;1.75;;;15.60;99.90;;;;;;5071379;28;20020;-72
2022/10/24 06:44:53;;;;;;;9.18;1.70;;;15.60;99.90;;;;;;5071605;28;20025;-73
2022/10/24 06:47:19;;;;;;;7.65;1.80;;;15.60;99.90;;;;;;5071128;28;20021;-72
2022/10/24 06:49:45;;;;;;;5.70;1.75;;;15.60;99.90;;;;;;5053278;28;20037;-73
2022/10/24 06:52:10;;;;;;;7.22;1.88;;;15.60;99.90;;;;;;5071341;28;20044;-73
2022/10/24 06:54:37;;;;;;;6.50;2.00;;;15.50;99.90;;;;;;5071406;28;20417;-72
2022/10/24 06:57:04;;;;;;;7.07;2.33;;;15.60;99.90;;;;;;5071202;28;20033;-72
2022/10/24 06:59:29;;;;;;;6.00;2.00;;;15.60;99.90;;;;;;5071248;28;20431;-72
2022/10/24 07:01:57;;;;;;;8.38;2.08;;;15.60;99.90;;;;;;5071105;28;20023;-71
2022/10/24 07:04:24;;;;;;;4.53;1.58;;;15.60;99.90;;;;;;5071614;28;20435;-71
2022/10/24 07:06:50;;;;;;;5.80;1.75;;;15.60;99.90;;;;;;5071412;28;20048;-72
2022/10/24 07:09:16;;;;;;;5.43;1.58;;;15.60;99.90;;;;;;5070987;28;20441;-72
2022/10/24 07:11:43;;;;;;;5.53;1.83;;;15.60;99.90;;;;;;5071049;28;20439;-72
2022/10/24 07:14:09;;;;;;;5.57;1.90;;;15.70;99.90;;;;;;5053260;28;20377;-71
2022/10/24 07:16:35;;;;;;;5.68;1.63;;;15.70;99.90;;;;;;5053025;28;20032;-72
2022/10/24 07:19:02;;;;;;;6.43;1.85;;;15.70;99.90;;;;;;5070928;28;20447;-72
2022/10/24 07:21:29;;;;;;;6.70;1.70;;;15.80;99.90;;;;;;5071076;28;20032;-72
2022/10/24 07:23:56;;;;;;;6.85;1.67;;;15.80;99.90;;;;;;5153272;22;20446;-69
2022/10/24 07:26:23;;;;;;;4.97;1.40;;;15.80;99.90;;;;;;5091153;28;20032;-69
2022/10/24 07:28:53;;;;;;;11.50;1.83;;;15.80;99.90;;;;;;5089636;28;20044;-69
2022/10/24 07:31:24;;;;;;;8.25;1.90;;;15.80;99.90;;;;;;5091077;28;20035;-69
2022/10/24 07:33:51;;;;;;;7.32;1.52;;;15.80;99.90;;;;;;5091417;28;20028;-69
2022/10/24 07:36:22;;;;;;;4.05;1.50;;;15.80;99.90;;;;;;5090990;28;20050;-69
2022/10/24 07:38:49;;;;;;;6.10;1.77;;;15.80;99.90;;;;;;5091180;28;20097;-69
2022/10/24 07:41:16;;;;;;;8.27;1.85;;;15.80;99.90;;;;;;5090993;28;20028;-69
2022/10/24 07:43:42;;;;;;;7.05;1.70;;;15.80;99.90;;;;;;5091160;28;20020;-69
2022/10/24 07:46:09;;;;;;;6.03;1.67;;;15.80;99.90;;;;;;5091112;28;20365;-70
2022/10/24 07:48:36;;;;;;;5.18;1.60;;;15.80;99.90;;;;;;5091776;28;20392;-69
2022/10/24 07:51:07;;;;;;;4.68;1.48;;;15.80;99.90;;;;;;5094859;28;20028;-69
2022/10/24 07:53:33;;;;;;;7.88;1.95;;;15.90;99.90;;;;;;5094737;28;20097;-69
2022/10/24 07:56:00;;;;;;;6.43;1.55;;;15.90;99.90;;;;;;5094306;28;20040;-69
2022/10/24 07:58:26;;;;;;;8.82;1.42;;;15.90;99.90;;;;;;5092818;28;20020;-69
2022/10/24 08:00:52;;;;;;;5.82;1.67;;;16.00;99.90;;;;;;5094648;28;20392;-70
2022/10/24 08:03:18;;;;;;;12.95;1.90;;;16.00;99.90;;;;;;5093456;28;20024;-69
2022/10/24 08:05:45;;;;;;;4.30;1.30;;;16.10;99.90;;;;;;5094563;28;20371;-69
2022/10/24 08:08:10;;;;;;;7.68;1.63;;;16.10;99.90;;;;;;5092965;28;20123;-69
2022/10/24 08:10:37;;;;;;;7.47;1.83;;;16.10;99.90;;;;;;5094297;28;20119;-69
2022/10/24 08:13:04;;;;;;;9.98;1.80;;;16.20;99.90;;;;;;5094151;28;20032;-69
2022/10/24 08:15:30;;;;;;;8.65;1.80;;;16.20;99.90;;;;;;5094345;28;20446;-69
2022/10/24 08:17:56;;;;;;;6.00;1.50;;;16.20;99.90;;;;;;5094239;28;20095;-69
2022/10/24 08:20:25;;;;;;;7.65;1.30;;;16.30;99.90;;;;;;5093865;28;20111;-69
2022/10/24 08:22:51;;;;;;;4.97;1.38;;;16.30;99.90;;;;;;5093656;28;20035;-69
2022/10/24 08:25:17;;;;;;;9.40;1.90;;;16.20;99.90;;;;;;5093971;28;20028;-69
2022/10/24 08:27:43;;;;;;;8.40;1.73;;;16.30;99.90;;;;;;5092594;28;20534;-69
2022/10/24 08:30:10;;;;;;;6.75;1.38;;;16.30;99.90;;;;;;5093819;28;20552;-69
2022/10/24 08:32:37;;;;;;;7.22;1.30;;;16.30;99.90;;;;;;5093992;28;20028;-69
2022/10/24 08:35:04;;;;;;;6.82;1.58;;;16.30;99.90;;;;;;5093799;28;22044;-69
2022/10/24 08:37:30;;;;;;;9.05;1.60;;;16.30;99.90;;;;;;5094029;28;20388;-69
2022/10/24 08:39:56;;;;;;;10.48;1.75;;;16.40;99.90;;;;;;5093661;28;20021;-69
2022/10/24 08:42:23;;;;;;;11.95;1.40;;;16.40;99.90;;;;;;5093928;28;20024;-69
2022/10/24 08:44:51;;;;;;;10.20;1.73;;;16.40;99.90;;;;;;5093839;28;20515;-68
2022/10/24 08:47:27;;;;;;;8.20;1.52;;;16.50;99.90;;;;;;5093598;28;20601;-68
2022/10/24 08:50:03;;;;;;;10.65;2.03;;;16.50;99.90;;;;;;5093782;28;20035;-68
2022/10/24 08:52:31;;;;;;;7.53;1.90;;;16.50;99.90;;;;;;5093679;28;20034;-69
2022/10/24 08:55:13;;;;;;;9.00;1.73;;;16.50;99.90;;;;;;5093623;28;20024;-69
2022/10/24 08:57:44;;;;;;;9.25;1.70;;;16.50;99.90;;;;;;5093582;28;20021;-69
2022/10/24 09:00:21;;;;;;;9.32;1.52;;;16.50;99.90;;;;;;5093516;28;20043;-68
2022/10/24 09:02:54;;;;;;;10.20;1.85;;;16.60;99.90;;;;;;5093280;28;20084;-69
2022/10/24 09:05:25;;;;;;;10.18;1.98;;;16.60;99.90;;;;;;5093526;28;20503;-69
2022/10/24 09:08:01;;;;;;;7.00;1.45;;;16.60;99.90;;;;;;5093433;28;20680;-69
2022/10/24 09:10:47;;;;;;;13.23;2.22;;;16.60;99.90;;;;;;5092052;28;20111;-69
2022/10/24 09:13:15;;;;;;;11.00;2.10;;;16.70;99.90;;;;;;5093251;28;20028;-69
2022/10/24 09:15:43;;;;;;;9.57;1.60;;;16.80;99.90;;;;;;5093065;28;20480;-69
2022/10/24 09:18:18;;;;;;;9.20;1.45;;;16.80;99.90;;;;;;5092886;28;20476;-69
2022/10/24 09:20:46;;;;;;;7.18;1.40;;;16.80;99.90;;;;;;5092828;28;20118;-69
2022/10/24 09:23:14;;;;;;;10.40;2.30;;;16.80;99.90;;;;;;5092694;28;20038;-69
2022/10/24 09:25:44;;;;;;;11.65;1.70;;;16.80;99.90;;;;;;5092640;28;20059;-69
2022/10/24 09:28:11;;;;;;;10.88;1.73;;;16.80;99.90;;;;;;5093181;28;20024;-69
2022/10/24 09:30:37;;;;;;;10.13;1.67;;;16.80;99.90;;;;;;5092796;28;20035;-70
2022/10/24 09:33:34;;;;;;;12.20;2.25;;;16.80;99.90;;;;;;5093063;28;20038;-70
2022/10/24 09:36:03;;;;;;;9.20;1.70;;;16.80;99.90;;;;;;5074202;28;20043;-69
2022/10/24 09:38:36;;;;;;;;;;;16.80;99.90;;;;;;5093259;28;20020;-70
2022/10/24 09:41:19;;;;;;;8.73;1.80;;;16.80;99.90;;;;;;5092711;28;19912;-69
2022/10/24 09:43:53;;;;;;;10.52;1.42;;;16.90;99.90;;;;;;5092628;28;20073;-70
2022/10/24 09:46:24;;;;;;;9.23;2.05;;;17.10;99.90;;;;;;5092337;28;20055;-69
2022/10/24 09:49:07;;;;;;;10.68;2.10;;;17.10;99.90;;;;;;5092074;28;20279;-70
2022/10/24 09:51:42;;;;;;;14.50;2.60;;;17.10;99.90;;;;;;5092679;28;20043;-70
2022/10/24 09:54:28;;;;;;;15.05;3.28;;;17.10;99.90;;;;;;5092598;28;20032;-69
2022/10/24 09:57:04;;;;;;;14.93;3.20;;;17.10;99.90;;;;;;5091862;28;20028;-69
2022/10/24 09:59:31;;;;;;;12.68;3.10;;;17.20;99.90;;;;;;5071969;28;20493;-69
2022/10/24 10:02:18;;;;;;;9.65;2.38;;;17.30;99.90;;;;;;5071789;28;20086;-69
2022/10/24 10:04:48;;;;;;;8.85;2.22;;;17.20;99.90;;;;;;5071875;28;20183;-69
2022/10/24 10:07:24;;;;;;;14.85;2.70;;;17.20;99.90;;;;;;5071858;28;20040;-69
2022/10/24 10:09:54;;;;;;;6.65;2.08;;;17.30;99.90;;;;;;5071952;28;20024;-69
2022/10/24 10:12:39;;;;;;;10.45;2.30;;;17.30;99.90;;;;;;5036808;28;20477;-69
2022/10/24 10:15:29;;;;;;;12.55;2.75;;;17.20;99.90;;;;;;5071365;28;20108;-70
2022/10/24 10:17:59;;;;;;;10.38;2.25;;;17.30;99.90;;;;;;5071423;28;20398;-70
2022/10/24 10:20:34;;;;;;;12.60;2.63;;;17.30;99.90;;;;;;5071288;28;20477;-69
2022/10/24 10:23:37;;;;;;;7.57;2.08;;;17.30;99.90;;;;;;5071287;28;20481;-70
2022/10/24 10:26:08;;;;;;;9.80;2.28;;;17.40;99.90;;;;;;4989952;28;20822;-69
2022/10/24 10:28:41;;;;;;;10.10;2.00;;;17.40;99.90;;;;;;5059082;28;20434;-70
2022/10/24 10:31:09;;;;;;;9.48;2.28;;;17.30;99.90;;;;;;5053758;28;20036;-69
2022/10/24 10:33:52;;;;;;;14.50;2.10;;;17.30;99.90;;;;;;5071536;28;20036;-69
2022/10/24 10:36:33;;;;;;;10.77;2.47;;;17.30;99.90;;;;;;5071368;28;20036;-70
2022/10/24 10:39:17;;;;;;;8.15;2.15;;;17.40;99.90;;;;;;5071435;28;20477;-69
2022/10/24 10:42:01;;;;;;;9.48;2.00;;;17.40;99.90;;;;;;5053391;28;20025;-69
2022/10/24 10:44:34;;;;;;;9.90;1.77;;;17.40;99.90;;;;;;5072138;28;20036;-69
2022/10/24 10:47:34;;;;;;;8.60;2.13;;;17.40;99.90;;;;;;5071296;28;20040;-69
2022/10/24 10:50:05;;;;;;;11.38;1.98;;;17.50;99.90;;;;;;5071491;28;20133;-69
2022/10/24 10:52:39;;;;;;;8.60;2.17;;;17.50;99.90;;;;;;5071230;28;20052;-70
2022/10/24 10:55:13;;;;;;;11.23;2.05;;;17.50;99.90;;;;;;5071065;28;20485;-70
2022/10/24 10:58:16;;;;;;;11.45;2.40;;;17.50;99.90;;;;;;5071027;28;20107;-69
2022/10/24 11:01:00;;;;;;;7.28;2.30;;;17.50;99.90;;;;;;5070521;28;20031;-69
2022/10/24 11:03:38;;;;;;;12.07;2.63;;;17.50;99.90;;;;;;5070800;28;20389;-69
2022/10/24 11:06:04;;;;;;;10.13;2.38;;;17.50;99.90;;;;;;5070773;28;20397;-70
2022/10/24 11:08:48;;;;;;;11.10;2.30;;;17.50;99.90;;;;;;5070944;28;20033;-70
2022/10/24 11:11:42;;;;;;;12.65;2.90;;;17.50;99.90;;;;;;5070806;28;20392;-69
2022/10/24 11:14:29;;;;;;;14.52;1.98;;;17.50;99.90;;;;;;5048943;28;20063;-69
2022/10/24 11:17:01;;;;;;;10.43;1.92;;;17.50;99.90;;;;;;5070660;28;20370;-69
2022/10/24 11:19:38;;;;;;;10.55;1.92;;;17.50;99.90;;;;;;5070617;28;20116;-70
2022/10/24 11:22:08;;;;;;;7.70;2.38;;;17.50;99.90;;;;;;5071010;28;20020;-69
2022/10/24 11:24:44;;;;;;;9.02;1.70;;;17.50;99.90;;;;;;5073281;28;20380;-70
2022/10/24 11:27:20;;;;;;;9.85;1.77;;;17.50;99.90;;;;;;5074411;28;20064;-69
2022/10/24 11:29:55;;;;;;;7.45;1.63;;;17.40;99.90;;;;;;5074312;28;20032;-70
2022/10/24 11:32:40;;;;;;;11.10;2.03;;;17.40;99.90;;;;;;5074430;28;20117;-69
2022/10/24 11:35:24;;;;;;;8.00;2.03;;;17.50;99.90;;;;;;5074300;28;20035;-70
2022/10/24 11:37:57;;;;;;;11.65;2.13;;;17.40;99.90;;;;;;5074387;28;20139;-69
2022/10/24 11:40:27;;;;;;;11.27;2.08;;;17.30;99.90;;;;;;5074253;28;20029;-70
2022/10/24 11:43:12;;;;;;;13.45;2.42;;;17.40;99.90;;;;;;5074087;28;20508;-69
2022/10/24 11:45:54;;;;;;;10.93;3.08;;;17.40;99.90;;;;;;5074313;28;20029;-70
2022/10/24 11:48:46;;;;;;;10.68;2.38;;;17.40;99.90;;;;;;5074358;28;20425;-70
2022/10/24 11:51:33;;;;;;;12.80;2.80;;;17.40;99.90;;;;;;5074122;28;20037;-69
2022/10/24 11:54:03;;;;;;;9.63;2.05;;;17.40;99.90;;;;;;5056294;28;20401;-69
2022/10/24 11:56:50;;;;;;;13.43;2.42;;;17.30;99.90;;;;;;5056194;28;20542;-70
2022/10/24 11:59:22;;;;;;;11.82;2.58;;;17.20;99.90;;;;;;5074010;28;20036;-69
2022/10/24 12:01:55;;;;;;;13.73;2.38;;;17.10;99.90;;;;;;5055846;28;20032;-69
2022/10/24 12:04:50;;;;;;;10.93;2.85;;;17.00;99.90;;;;;;5074054;28;20400;-70
2022/10/24 12:07:46;;;;;;;13.55;2.75;;;17.10;99.90;;;;;;5074073;28;20392;-69
2022/10/24 12:10:15;;;;;;;14.10;3.00;;;17.00;99.90;;;;;;5073804;28;20033;-69
2022/10/24 12:13:09;;;;;;;14.40;3.20;;;17.00;99.90;;;;;;5073805;28;20132;-69
2022/10/24 12:16:06;;;;;;;11.45;3.10;;;17.10;99.90;;;;;;5073991;28;20366;-70
2022/10/24 12:18:37;;;;;;;11.02;2.22;;;17.00;99.90;;;;;;5073627;28;20028;-70
2022/10/24 12:21:07;;;;;;;13.82;2.15;;;17.10;99.90;;;;;;5073742;28;20032;-70
2022/10/24 12:23:34;;;;;;;11.88;2.97;;;17.10;99.90;;;;;;5073414;28;20033;-70
2022/10/24 12:26:17;;;;;;;16.25;3.22;;;17.10;99.90;;;;;;5073456;28;20028;-70
2022/10/24 12:29:03;;;;;;;12.70;3.25;;;17.00;99.90;;;;;;5073348;28;20094;-70
2022/10/24 12:31:35;;;;;;;8.43;2.47;;;17.00;99.90;;;;;;5055598;28;20051;-71
2022/10/24 12:34:21;;;;;;;19.40;3.20;;;17.00;99.90;;;;;;5073096;28;20089;-70
2022/10/24 12:37:25;;;;;;;15.93;3.25;;;17.00;99.90;;;;;;5073196;28;20029;-70
2022/10/24 12:39:52;;;;;;;13.25;2.35;;;17.00;99.90;;;;;;5044672;28;20135;-70
2022/10/24 12:42:18;;;;;;;15.23;2.20;;;17.00;99.90;;;;;;5073061;28;20489;-70
2022/10/24 12:44:46;;;;;;;10.52;2.22;;;17.00;99.90;;;;;;5073302;28;20027;-70
2022/10/24 12:47:27;;;;;;;9.98;2.15;;;17.00;99.90;;;;;;5073131;28;20086;-70
2022/10/24 12:49:53;;;;;;;13.23;2.50;;;17.00;99.90;;;;;;5073135;28;20036;-70
2022/10/24 12:52:31;;;;;;;18.10;3.00;;;17.00;99.90;;;;;;5073080;28;20025;-70
2022/10/24 12:54:58;;;;;;;13.40;3.67;;;17.00;99.90;;;;;;5055142;28;20036;-70
2022/10/24 12:57:30;;;;;;;12.23;3.58;;;17.00;99.90;;;;;;5072858;28;20028;-70
2022/10/24 12:59:59;;;;;;;14.60;4.25;;;17.00;99.90;;;;;;5072737;28;20028;-70
2022/10/24 13:03:04;;;;;;;12.02;3.88;;;17.10;99.90;;;;;;5072815;28;20446;-70